sensor_id;sensor_type;location;lat;lon;timestamp;temperature;humidity
22073;DHT22;11202;50.916;4.698;2022-12-07T00:01:43;6.10;99.90
22073;DHT22;11202;50.916;4.698;2022-12-07T00:04:12;6.10;99.90
22073;DHT22;11202;50.916;4.698;2022-12-07T00:06:43;5.90;99.90
22073;DHT22;11202;50.916;4.698;2022-12-07T00:09:14;5.70;99.90
22073;DHT22;11202;50.916;4.698;2022-12-07T00:11:44;5.80;99.90
22073;DHT22;11202;50.916;4.698;2022-12-07T00:14:15;5.90;99.90
22073;DHT22;11202;50.916;4.698;2022-12-07T00:16:42;6.00;99.90
22073;DHT22;11202;50.916;4.698;2022-12-07T00:19:10;6.00;99.90
22073;DHT22;11202;50.916;4.698;2022-12-07T00:21:38;5.80;99.90
22073;DHT22;11202;50.916;4.698;2022-12-07T00:24:07;5.90;99.90
22073;DHT22;11202;50.916;4.698;2022-12-07T00:26:38;5.80;99.90
22073;DHT22;11202;50.916;4.698;2022-12-07T00:29:22;5.70;99.90
22073;DHT22;11202;50.916;4.698;2022-12-07T00:31:48;5.80;99.90
22073;DHT22;11202;50.916;4.698;2022-12-07T00:34:18;5.60;99.90
22073;DHT22;11202;50.916;4.698;2022-12-07T00:36:44;5.50;99.90
22073;DHT22;11202;50.916;4.698;2022-12-07T00:39:12;5.30;99.90
22073;DHT22;11202;50.916;4.698;2022-12-07T00:41:38;5.40;99.90
22073;DHT22;11202;50.916;4.698;2022-12-07T00:44:07;5.60;99.90
22073;DHT22;11202;50.916;4.698;2022-12-07T00:46:32;5.60;99.90
22073;DHT22;11202;50.916;4.698;2022-12-07T00:49:00;5.70;99.90
22073;DHT22;11202;50.916;4.698;2022-12-07T00:51:26;5.60;99.90
22073;DHT22;11202;50.916;4.698;2022-12-07T00:53:54;5.60;99.90
22073;DHT22;11202;50.916;4.698;2022-12-07T00:56:27;5.60;99.90
22073;DHT22;11202;50.916;4.698;2022-12-07T00:58:55;5.70;99.90
22073;DHT22;11202;50.916;4.698;2022-12-07T01:01:21;5.70;99.90
22073;DHT22;11202;50.916;4.698;2022-12-07T01:03:50;5.80;99.90
22073;DHT22;11202;50.916;4.698;2022-12-07T01:06:20;5.60;99.90
22073;DHT22;11202;50.916;4.698;2022-12-07T01:08:48;5.40;99.90
22073;DHT22;11202;50.916;4.698;2022-12-07T01:11:21;5.60;99.90
22073;DHT22;11202;50.916;4.698;2022-12-07T01:13:49;5.80;99.90
22073;DHT22;11202;50.916;4.698;2022-12-07T01:16:16;5.80;99.90
22073;DHT22;11202;50.916;4.698;2022-12-07T01:18:42;5.60;99.90
22073;DHT22;11202;50.916;4.698;2022-12-07T01:21:13;5.60;99.90
22073;DHT22;11202;50.916;4.698;2022-12-07T01:23:40;5.70;99.90
22073;DHT22;11202;50.916;4.698;2022-12-07T01:26:09;5.60;99.90
22073;DHT22;11202;50.916;4.698;2022-12-07T01:28:37;5.50;99.90
22073;DHT22;11202;50.916;4.698;2022-12-07T01:31:09;5.30;99.90
22073;DHT22;11202;50.916;4.698;2022-12-07T01:33:41;5.10;99.90
22073;DHT22;11202;50.916;4.698;2022-12-07T01:36:16;5.10;99.90
22073;DHT22;11202;50.916;4.698;2022-12-07T01:38:42;5.40;99.90
22073;DHT22;11202;50.916;4.698;2022-12-07T01:41:08;5.30;99.90
22073;DHT22;11202;50.916;4.698;2022-12-07T01:43:37;5.40;99.90
22073;DHT22;11202;50.916;4.698;2022-12-07T01:46:22;5.40;99.90
22073;DHT22;11202;50.916;4.698;2022-12-07T01:48:48;5.60;99.90
22073;DHT22;11202;50.916;4.698;2022-12-07T01:51:14;5.90;99.90
22073;DHT22;11202;50.916;4.698;2022-12-07T01:53:43;6.00;99.90
22073;DHT22;11202;50.916;4.698;2022-12-07T01:56:15;5.90;99.90
22073;DHT22;11202;50.916;4.698;2022-12-07T01:58:45;5.70;99.90
22073;DHT22;11202;50.916;4.698;2022-12-07T02:01:11;5.60;99.90
22073;DHT22;11202;50.916;4.698;2022-12-07T02:03:41;5.70;99.90
22073;DHT22;11202;50.916;4.698;2022-12-07T02:06:08;5.90;99.90
22073;DHT22;11202;50.916;4.698;2022-12-07T02:08:36;6.00;99.90
22073;DHT22;11202;50.916;4.698;2022-12-07T02:11:03;6.10;99.90
22073;DHT22;11202;50.916;4.698;2022-12-07T02:13:35;6.10;99.90
22073;DHT22;11202;50.916;4.698;2022-12-07T02:16:28;6.10;99.90
22073;DHT22;11202;50.916;4.698;2022-12-07T02:19:06;5.90;99.90
22073;DHT22;11202;50.916;4.698;2022-12-07T02:21:51;5.80;99.90
22073;DHT22;11202;50.916;4.698;2022-12-07T02:29:26;5.50;99.90
22073;DHT22;11202;50.916;4.698;2022-12-07T02:42:55;5.20;99.90
22073;DHT22;11202;50.916;4.698;2022-12-07T02:45:25;5.10;99.90
22073;DHT22;11202;50.916;4.698;2022-12-07T02:47:56;5.20;99.90
22073;DHT22;11202;50.916;4.698;2022-12-07T02:50:26;5.40;99.90
22073;DHT22;11202;50.916;4.698;2022-12-07T02:52:51;5.50;99.90
22073;DHT22;11202;50.916;4.698;2022-12-07T02:55:19;5.40;99.90
22073;DHT22;11202;50.916;4.698;2022-12-07T03:00:23;5.70;99.90
22073;DHT22;11202;50.916;4.698;2022-12-07T03:03:07;5.60;99.90
22073;DHT22;11202;50.916;4.698;2022-12-07T03:08:37;5.40;99.90
22073;DHT22;11202;50.916;4.698;2022-12-07T03:11:10;5.50;99.90
22073;DHT22;11202;50.916;4.698;2022-12-07T03:16:18;5.40;99.90
22073;DHT22;11202;50.916;4.698;2022-12-07T03:18:59;5.40;99.90
22073;DHT22;11202;50.916;4.698;2022-12-07T03:21:32;5.60;99.90
22073;DHT22;11202;50.916;4.698;2022-12-07T03:24:01;5.50;99.90
22073;DHT22;11202;50.916;4.698;2022-12-07T03:26:33;5.50;99.90
22073;DHT22;11202;50.916;4.698;2022-12-07T03:29:03;5.50;99.90
22073;DHT22;11202;50.916;4.698;2022-12-07T03:31:38;5.60;99.90
22073;DHT22;11202;50.916;4.698;2022-12-07T03:34:16;5.70;99.90
22073;DHT22;11202;50.916;4.698;2022-12-07T03:37:04;5.80;99.90
22073;DHT22;11202;50.916;4.698;2022-12-07T03:39:39;5.90;99.90
22073;DHT22;11202;50.916;4.698;2022-12-07T03:42:06;6.00;99.90
22073;DHT22;11202;50.916;4.698;2022-12-07T03:44:34;5.90;99.90
22073;DHT22;11202;50.916;4.698;2022-12-07T03:49:48;5.90;99.90
22073;DHT22;11202;50.916;4.698;2022-12-07T03:52:18;6.00;99.90
22073;DHT22;11202;50.916;4.698;2022-12-07T03:57:34;5.80;99.90
22073;DHT22;11202;50.916;4.698;2022-12-07T04:00:04;5.60;99.90
22073;DHT22;11202;50.916;4.698;2022-12-07T04:02:31;5.30;99.90
22073;DHT22;11202;50.916;4.698;2022-12-07T04:04:57;5.20;99.90
22073;DHT22;11202;50.916;4.698;2022-12-07T04:07:25;5.30;99.90
22073;DHT22;11202;50.916;4.698;2022-12-07T04:09:51;5.20;99.90
22073;DHT22;11202;50.916;4.698;2022-12-07T04:12:17;5.00;99.90
22073;DHT22;11202;50.916;4.698;2022-12-07T04:14:45;4.90;99.90
22073;DHT22;11202;50.916;4.698;2022-12-07T04:17:10;4.70;99.90
22073;DHT22;11202;50.916;4.698;2022-12-07T04:19:36;4.40;99.90
22073;DHT22;11202;50.916;4.698;2022-12-07T04:22:03;4.30;99.90
22073;DHT22;11202;50.916;4.698;2022-12-07T04:24:32;4.20;99.90
22073;DHT22;11202;50.916;4.698;2022-12-07T04:26:58;4.00;99.90
22073;DHT22;11202;50.916;4.698;2022-12-07T04:29:24;4.00;99.90
22073;DHT22;11202;50.916;4.698;2022-12-07T04:31:50;4.00;99.90
22073;DHT22;11202;50.916;4.698;2022-12-07T04:34:17;3.90;99.90
22073;DHT22;11202;50.916;4.698;2022-12-07T04:36:46;4.00;99.90
22073;DHT22;11202;50.916;4.698;2022-12-07T04:39:19;3.90;99.90
22073;DHT22;11202;50.916;4.698;2022-12-07T04:41:45;3.80;99.90
22073;DHT22;11202;50.916;4.698;2022-12-07T04:44:12;3.80;99.90
22073;DHT22;11202;50.916;4.698;2022-12-07T04:46:43;3.90;99.90
22073;DHT22;11202;50.916;4.698;2022-12-07T04:49:09;4.20;99.90
22073;DHT22;11202;50.916;4.698;2022-12-07T04:51:35;4.50;99.90
22073;DHT22;11202;50.916;4.698;2022-12-07T04:54:01;4.60;99.90
22073;DHT22;11202;50.916;4.698;2022-12-07T04:56:26;4.70;99.90
22073;DHT22;11202;50.916;4.698;2022-12-07T04:58:53;4.60;99.90
22073;DHT22;11202;50.916;4.698;2022-12-07T05:01:22;4.70;99.90
22073;DHT22;11202;50.916;4.698;2022-12-07T05:03:48;4.40;99.90
22073;DHT22;11202;50.916;4.698;2022-12-07T05:06:14;4.40;99.90
22073;DHT22;11202;50.916;4.698;2022-12-07T05:08:40;4.40;99.90
22073;DHT22;11202;50.916;4.698;2022-12-07T05:11:07;4.50;99.90
22073;DHT22;11202;50.916;4.698;2022-12-07T05:13:36;4.50;99.90
22073;DHT22;11202;50.916;4.698;2022-12-07T05:16:01;4.50;99.90
22073;DHT22;11202;50.916;4.698;2022-12-07T05:18:27;4.40;99.90
22073;DHT22;11202;50.916;4.698;2022-12-07T05:20:53;4.40;99.90
22073;DHT22;11202;50.916;4.698;2022-12-07T05:23:19;4.30;99.90
22073;DHT22;11202;50.916;4.698;2022-12-07T05:25:47;4.50;99.90
22073;DHT22;11202;50.916;4.698;2022-12-07T05:28:13;4.60;99.90
22073;DHT22;11202;50.916;4.698;2022-12-07T05:30:38;4.80;99.90
22073;DHT22;11202;50.916;4.698;2022-12-07T05:33:04;5.00;99.90
22073;DHT22;11202;50.916;4.698;2022-12-07T05:35:30;5.10;99.90
22073;DHT22;11202;50.916;4.698;2022-12-07T05:37:56;5.20;99.90
22073;DHT22;11202;50.916;4.698;2022-12-07T05:40:22;5.10;99.90
22073;DHT22;11202;50.916;4.698;2022-12-07T05:42:50;4.90;99.90
22073;DHT22;11202;50.916;4.698;2022-12-07T05:45:20;5.00;99.90
22073;DHT22;11202;50.916;4.698;2022-12-07T05:47:49;5.10;99.90
22073;DHT22;11202;50.916;4.698;2022-12-07T05:50:14;4.90;99.90
22073;DHT22;11202;50.916;4.698;2022-12-07T05:52:42;4.80;99.90
22073;DHT22;11202;50.916;4.698;2022-12-07T05:55:10;4.80;99.90
22073;DHT22;11202;50.916;4.698;2022-12-07T05:57:36;5.00;99.90
22073;DHT22;11202;50.916;4.698;2022-12-07T06:00:03;5.00;99.90
22073;DHT22;11202;50.916;4.698;2022-12-07T06:02:29;5.10;99.90
22073;DHT22;11202;50.916;4.698;2022-12-07T06:04:54;4.90;99.90
22073;DHT22;11202;50.916;4.698;2022-12-07T06:07:20;5.10;99.90
22073;DHT22;11202;50.916;4.698;2022-12-07T06:09:48;5.00;99.90
22073;DHT22;11202;50.916;4.698;2022-12-07T06:12:14;4.90;99.90
22073;DHT22;11202;50.916;4.698;2022-12-07T06:14:58;5.10;99.90
22073;DHT22;11202;50.916;4.698;2022-12-07T06:17:24;5.10;99.90
22073;DHT22;11202;50.916;4.698;2022-12-07T06:19:50;4.90;99.90
22073;DHT22;11202;50.916;4.698;2022-12-07T06:22:16;4.90;99.90
22073;DHT22;11202;50.916;4.698;2022-12-07T06:24:42;5.10;99.90
22073;DHT22;11202;50.916;4.698;2022-12-07T06:27:08;5.30;99.90
22073;DHT22;11202;50.916;4.698;2022-12-07T06:29:34;5.50;99.90
22073;DHT22;11202;50.916;4.698;2022-12-07T06:31:59;5.50;99.90
22073;DHT22;11202;50.916;4.698;2022-12-07T06:34:26;5.60;99.90
22073;DHT22;11202;50.916;4.698;2022-12-07T06:36:52;5.60;99.90
22073;DHT22;11202;50.916;4.698;2022-12-07T06:39:22;5.50;99.90
22073;DHT22;11202;50.916;4.698;2022-12-07T06:41:48;5.20;99.90
22073;DHT22;11202;50.916;4.698;2022-12-07T06:44:13;4.90;99.90
22073;DHT22;11202;50.916;4.698;2022-12-07T06:46:41;4.80;99.90
22073;DHT22;11202;50.916;4.698;2022-12-07T06:49:07;4.90;99.90
22073;DHT22;11202;50.916;4.698;2022-12-07T06:51:33;4.90;99.90
22073;DHT22;11202;50.916;4.698;2022-12-07T06:54:02;4.80;99.90
22073;DHT22;11202;50.916;4.698;2022-12-07T06:56:28;4.70;99.90
22073;DHT22;11202;50.916;4.698;2022-12-07T06:58:56;4.70;99.90
22073;DHT22;11202;50.916;4.698;2022-12-07T07:01:22;4.80;99.90
22073;DHT22;11202;50.916;4.698;2022-12-07T07:03:48;4.70;99.90
22073;DHT22;11202;50.916;4.698;2022-12-07T07:06:14;4.90;99.90
22073;DHT22;11202;50.916;4.698;2022-12-07T07:08:40;5.10;99.90
22073;DHT22;11202;50.916;4.698;2022-12-07T07:11:07;5.10;99.90
22073;DHT22;11202;50.916;4.698;2022-12-07T07:13:33;5.00;99.90
22073;DHT22;11202;50.916;4.698;2022-12-07T07:15:59;4.90;99.90
22073;DHT22;11202;50.916;4.698;2022-12-07T07:18:25;5.10;99.90
22073;DHT22;11202;50.916;4.698;2022-12-07T07:20:51;5.20;99.90
22073;DHT22;11202;50.916;4.698;2022-12-07T07:23:18;5.40;99.90
22073;DHT22;11202;50.916;4.698;2022-12-07T07:25:44;5.70;99.90
22073;DHT22;11202;50.916;4.698;2022-12-07T07:28:10;5.80;99.90
22073;DHT22;11202;50.916;4.698;2022-12-07T07:30:35;5.80;99.90
22073;DHT22;11202;50.916;4.698;2022-12-07T07:33:03;5.60;99.90
22073;DHT22;11202;50.916;4.698;2022-12-07T07:35:30;5.40;99.90
22073;DHT22;11202;50.916;4.698;2022-12-07T07:37:56;5.20;99.90
22073;DHT22;11202;50.916;4.698;2022-12-07T07:40:21;5.20;99.90
22073;DHT22;11202;50.916;4.698;2022-12-07T07:42:48;5.20;99.90
22073;DHT22;11202;50.916;4.698;2022-12-07T07:45:14;5.10;99.90
22073;DHT22;11202;50.916;4.698;2022-12-07T07:47:40;5.10;99.90
22073;DHT22;11202;50.916;4.698;2022-12-07T07:50:06;4.90;99.90
22073;DHT22;11202;50.916;4.698;2022-12-07T07:52:32;5.00;99.90
22073;DHT22;11202;50.916;4.698;2022-12-07T07:54:59;4.80;99.90
22073;DHT22;11202;50.916;4.698;2022-12-07T07:57:25;4.80;99.90
22073;DHT22;11202;50.916;4.698;2022-12-07T07:59:50;4.80;99.90
22073;DHT22;11202;50.916;4.698;2022-12-07T08:02:21;4.60;99.90
22073;DHT22;11202;50.916;4.698;2022-12-07T08:04:47;4.80;99.90
22073;DHT22;11202;50.916;4.698;2022-12-07T08:07:14;4.80;99.90
22073;DHT22;11202;50.916;4.698;2022-12-07T08:09:39;5.00;99.90
22073;DHT22;11202;50.916;4.698;2022-12-07T08:12:05;5.00;99.90
22073;DHT22;11202;50.916;4.698;2022-12-07T08:14:31;5.10;99.90
22073;DHT22;11202;50.916;4.698;2022-12-07T08:16:57;5.00;99.90
22073;DHT22;11202;50.916;4.698;2022-12-07T08:19:25;4.90;99.90
22073;DHT22;11202;50.916;4.698;2022-12-07T08:21:51;5.10;99.90
22073;DHT22;11202;50.916;4.698;2022-12-07T08:24:17;5.20;99.90
22073;DHT22;11202;50.916;4.698;2022-12-07T08:26:43;5.20;99.90
22073;DHT22;11202;50.916;4.698;2022-12-07T08:29:09;5.30;99.90
22073;DHT22;11202;50.916;4.698;2022-12-07T08:31:35;5.80;99.90
22073;DHT22;11202;50.916;4.698;2022-12-07T08:34:00;6.30;99.90
22073;DHT22;11202;50.916;4.698;2022-12-07T08:36:26;6.80;99.90
22073;DHT22;11202;50.916;4.698;2022-12-07T08:38:52;7.30;99.90
22073;DHT22;11202;50.916;4.698;2022-12-07T08:41:17;7.70;99.90
22073;DHT22;11202;50.916;4.698;2022-12-07T08:43:43;8.40;99.90
22073;DHT22;11202;50.916;4.698;2022-12-07T08:46:46;8.70;99.90
22073;DHT22;11202;50.916;4.698;2022-12-07T08:49:13;9.40;99.90
22073;DHT22;11202;50.916;4.698;2022-12-07T08:51:41;10.10;99.90
22073;DHT22;11202;50.916;4.698;2022-12-07T08:54:10;9.90;99.90
22073;DHT22;11202;50.916;4.698;2022-12-07T08:56:36;9.40;99.90
22073;DHT22;11202;50.916;4.698;2022-12-07T08:59:03;9.10;99.90
22073;DHT22;11202;50.916;4.698;2022-12-07T09:01:29;8.80;99.90
22073;DHT22;11202;50.916;4.698;2022-12-07T09:03:55;8.40;99.90
22073;DHT22;11202;50.916;4.698;2022-12-07T09:06:20;8.00;99.90
22073;DHT22;11202;50.916;4.698;2022-12-07T09:08:48;7.70;99.90
22073;DHT22;11202;50.916;4.698;2022-12-07T09:11:14;7.40;99.90
22073;DHT22;11202;50.916;4.698;2022-12-07T09:13:40;7.00;99.90
22073;DHT22;11202;50.916;4.698;2022-12-07T09:16:09;6.70;99.90
22073;DHT22;11202;50.916;4.698;2022-12-07T09:18:34;6.70;99.90
22073;DHT22;11202;50.916;4.698;2022-12-07T09:21:00;6.70;99.90
22073;DHT22;11202;50.916;4.698;2022-12-07T09:23:26;6.80;99.90
22073;DHT22;11202;50.916;4.698;2022-12-07T09:25:51;6.80;99.90
22073;DHT22;11202;50.916;4.698;2022-12-07T09:28:17;6.80;99.90
22073;DHT22;11202;50.916;4.698;2022-12-07T09:30:47;6.80;99.90
22073;DHT22;11202;50.916;4.698;2022-12-07T09:33:13;6.70;99.90
22073;DHT22;11202;50.916;4.698;2022-12-07T09:35:45;6.60;99.90
22073;DHT22;11202;50.916;4.698;2022-12-07T09:38:11;6.50;99.90
22073;DHT22;11202;50.916;4.698;2022-12-07T09:40:40;6.50;99.90
22073;DHT22;11202;50.916;4.698;2022-12-07T09:43:13;6.80;99.90
22073;DHT22;11202;50.916;4.698;2022-12-07T09:45:43;7.10;99.90
22073;DHT22;11202;50.916;4.698;2022-12-07T09:48:28;7.30;99.90
22073;DHT22;11202;50.916;4.698;2022-12-07T09:50:58;7.40;99.90
22073;DHT22;11202;50.916;4.698;2022-12-07T09:53:33;7.40;99.90
22073;DHT22;11202;50.916;4.698;2022-12-07T09:56:01;7.50;99.90
22073;DHT22;11202;50.916;4.698;2022-12-07T09:58:29;7.50;99.90
22073;DHT22;11202;50.916;4.698;2022-12-07T10:01:19;7.50;99.90
22073;DHT22;11202;50.916;4.698;2022-12-07T10:06:18;7.50;99.90
22073;DHT22;11202;50.916;4.698;2022-12-07T10:08:43;7.60;99.90
22073;DHT22;11202;50.916;4.698;2022-12-07T10:11:10;7.70;99.90
22073;DHT22;11202;50.916;4.698;2022-12-07T10:14:09;7.90;99.90
22073;DHT22;11202;50.916;4.698;2022-12-07T10:16:31;8.00;99.90
22073;DHT22;11202;50.916;4.698;2022-12-07T10:19:24;8.00;99.90
22073;DHT22;11202;50.916;4.698;2022-12-07T10:22:15;8.10;99.90
22073;DHT22;11202;50.916;4.698;2022-12-07T10:24:46;8.20;99.90
22073;DHT22;11202;50.916;4.698;2022-12-07T10:27:30;8.30;99.90
22073;DHT22;11202;50.916;4.698;2022-12-07T10:29:57;8.30;99.90
22073;DHT22;11202;50.916;4.698;2022-12-07T10:32:34;8.20;99.90
22073;DHT22;11202;50.916;4.698;2022-12-07T10:37:45;8.50;99.90
22073;DHT22;11202;50.916;4.698;2022-12-07T10:40:32;8.50;99.90
22073;DHT22;11202;50.916;4.698;2022-12-07T10:51:19;8.80;99.90
22073;DHT22;11202;50.916;4.698;2022-12-07T10:54:03;8.60;99.90
22073;DHT22;11202;50.916;4.698;2022-12-07T11:02:22;8.50;99.90
22073;DHT22;11202;50.916;4.698;2022-12-07T11:11:05;8.10;99.90
22073;DHT22;11202;50.916;4.698;2022-12-07T11:16:07;7.80;99.90
22073;DHT22;11202;50.916;4.698;2022-12-07T11:18:57;7.80;99.90
22073;DHT22;11202;50.916;4.698;2022-12-07T11:21:42;7.90;99.90
22073;DHT22;11202;50.916;4.698;2022-12-07T11:24:15;7.90;99.90
22073;DHT22;11202;50.916;4.698;2022-12-07T11:27:16;7.90;99.90
22073;DHT22;11202;50.916;4.698;2022-12-07T11:30:03;7.90;99.90
22073;DHT22;11202;50.916;4.698;2022-12-07T11:38:14;7.80;99.90
22073;DHT22;11202;50.916;4.698;2022-12-07T11:40:45;7.80;99.90
22073;DHT22;11202;50.916;4.698;2022-12-07T11:43:26;7.80;99.90
22073;DHT22;11202;50.916;4.698;2022-12-07T11:45:59;7.90;99.90
22073;DHT22;11202;50.916;4.698;2022-12-07T11:51:01;8.10;99.90
22073;DHT22;11202;50.916;4.698;2022-12-07T11:53:35;8.30;99.90
22073;DHT22;11202;50.916;4.698;2022-12-07T11:56:16;8.30;99.90
22073;DHT22;11202;50.916;4.698;2022-12-07T11:59:00;8.40;99.90
22073;DHT22;11202;50.916;4.698;2022-12-07T12:06:41;8.70;99.90
22073;DHT22;11202;50.916;4.698;2022-12-07T12:12:40;8.40;99.90
22073;DHT22;11202;50.916;4.698;2022-12-07T12:15:20;8.30;99.90
22073;DHT22;11202;50.916;4.698;2022-12-07T12:20:32;8.10;99.90
22073;DHT22;11202;50.916;4.698;2022-12-07T12:23:12;8.20;99.90
22073;DHT22;11202;50.916;4.698;2022-12-07T12:28:51;8.10;99.90
22073;DHT22;11202;50.916;4.698;2022-12-07T12:34:29;8.10;99.90
22073;DHT22;11202;50.916;4.698;2022-12-07T12:39:16;8.00;99.90
22073;DHT22;11202;50.916;4.698;2022-12-07T12:46:52;8.00;99.90
22073;DHT22;11202;50.916;4.698;2022-12-07T12:51:52;8.40;99.90
22073;DHT22;11202;50.916;4.698;2022-12-07T12:54:27;8.50;99.90
22073;DHT22;11202;50.916;4.698;2022-12-07T13:20:58;9.40;99.90
22073;DHT22;11202;50.916;4.698;2022-12-07T13:29:19;9.20;99.90
22073;DHT22;11202;50.916;4.698;2022-12-07T13:31:56;9.30;99.90
22073;DHT22;11202;50.916;4.698;2022-12-07T13:34:36;9.30;99.90
22073;DHT22;11202;50.916;4.698;2022-12-07T13:37:12;9.00;99.90
22073;DHT22;11202;50.916;4.698;2022-12-07T13:39:57;8.80;99.90
22073;DHT22;11202;50.916;4.698;2022-12-07T13:42:35;8.60;99.90
22073;DHT22;11202;50.916;4.698;2022-12-07T13:45:21;8.40;99.90
22073;DHT22;11202;50.916;4.698;2022-12-07T13:48:14;8.20;99.90
22073;DHT22;11202;50.916;4.698;2022-12-07T13:50:41;8.10;99.90
22073;DHT22;11202;50.916;4.698;2022-12-07T13:53:12;7.80;99.90
22073;DHT22;11202;50.916;4.698;2022-12-07T13:55:45;7.80;99.90
22073;DHT22;11202;50.916;4.698;2022-12-07T14:03:31;8.20;99.90
22073;DHT22;11202;50.916;4.698;2022-12-07T14:08:36;8.30;99.90
22073;DHT22;11202;50.916;4.698;2022-12-07T14:11:02;8.30;99.90
22073;DHT22;11202;50.916;4.698;2022-12-07T14:13:56;8.20;99.90
22073;DHT22;11202;50.916;4.698;2022-12-07T14:16:32;8.20;99.90
22073;DHT22;11202;50.916;4.698;2022-12-07T14:19:00;8.20;99.90
22073;DHT22;11202;50.916;4.698;2022-12-07T14:21:28;8.20;99.90
22073;DHT22;11202;50.916;4.698;2022-12-07T14:24:10;8.00;99.90
22073;DHT22;11202;50.916;4.698;2022-12-07T14:26:39;8.00;99.90
22073;DHT22;11202;50.916;4.698;2022-12-07T14:31:52;7.80;99.90
22073;DHT22;11202;50.916;4.698;2022-12-07T14:34:20;7.60;99.90
22073;DHT22;11202;50.916;4.698;2022-12-07T14:36:46;7.50;99.90
22073;DHT22;11202;50.916;4.698;2022-12-07T14:39:12;7.40;99.90
22073;DHT22;11202;50.916;4.698;2022-12-07T14:41:37;7.20;99.90
22073;DHT22;11202;50.916;4.698;2022-12-07T14:44:24;7.00;99.90
22073;DHT22;11202;50.916;4.698;2022-12-07T14:46:50;6.80;99.90
22073;DHT22;11202;50.916;4.698;2022-12-07T14:49:17;6.80;99.90
22073;DHT22;11202;50.916;4.698;2022-12-07T14:51:44;6.70;99.90
22073;DHT22;11202;50.916;4.698;2022-12-07T14:54:17;6.90;99.90
22073;DHT22;11202;50.916;4.698;2022-12-07T14:56:44;6.90;99.90
22073;DHT22;11202;50.916;4.698;2022-12-07T14:59:11;7.00;99.90
22073;DHT22;11202;50.916;4.698;2022-12-07T15:01:37;7.20;99.90
22073;DHT22;11202;50.916;4.698;2022-12-07T15:04:03;7.30;99.90
22073;DHT22;11202;50.916;4.698;2022-12-07T15:06:29;7.30;99.90
22073;DHT22;11202;50.916;4.698;2022-12-07T15:08:54;7.20;99.90
22073;DHT22;11202;50.916;4.698;2022-12-07T15:11:20;7.10;99.90
22073;DHT22;11202;50.916;4.698;2022-12-07T15:13:46;7.10;99.90
22073;DHT22;11202;50.916;4.698;2022-12-07T15:16:30;7.20;99.90
22073;DHT22;11202;50.916;4.698;2022-12-07T15:18:56;7.00;99.90
22073;DHT22;11202;50.916;4.698;2022-12-07T15:21:22;7.10;99.90
22073;DHT22;11202;50.916;4.698;2022-12-07T15:23:49;7.00;99.90
22073;DHT22;11202;50.916;4.698;2022-12-07T15:26:15;6.90;99.90
22073;DHT22;11202;50.916;4.698;2022-12-07T15:28:43;6.70;99.90
22073;DHT22;11202;50.916;4.698;2022-12-07T15:31:16;6.60;99.90
22073;DHT22;11202;50.916;4.698;2022-12-07T15:33:43;6.50;99.90
22073;DHT22;11202;50.916;4.698;2022-12-07T15:36:20;6.30;99.90
22073;DHT22;11202;50.916;4.698;2022-12-07T15:38:47;6.20;99.90
22073;DHT22;11202;50.916;4.698;2022-12-07T15:41:13;6.20;99.90
22073;DHT22;11202;50.916;4.698;2022-12-07T15:43:38;6.30;99.90
22073;DHT22;11202;50.916;4.698;2022-12-07T15:46:22;6.40;99.90
22073;DHT22;11202;50.916;4.698;2022-12-07T15:48:48;6.40;99.90
22073;DHT22;11202;50.916;4.698;2022-12-07T15:51:13;6.40;99.90
22073;DHT22;11202;50.916;4.698;2022-12-07T15:53:42;6.40;99.90
22073;DHT22;11202;50.916;4.698;2022-12-07T15:56:08;6.40;99.90
22073;DHT22;11202;50.916;4.698;2022-12-07T15:58:34;6.50;99.90
22073;DHT22;11202;50.916;4.698;2022-12-07T16:01:13;6.50;99.90
22073;DHT22;11202;50.916;4.698;2022-12-07T16:03:39;6.50;99.90
22073;DHT22;11202;50.916;4.698;2022-12-07T16:06:06;6.60;99.90
22073;DHT22;11202;50.916;4.698;2022-12-07T16:08:32;6.60;99.90
22073;DHT22;11202;50.916;4.698;2022-12-07T16:10:58;6.70;99.90
22073;DHT22;11202;50.916;4.698;2022-12-07T16:13:23;6.60;99.90
22073;DHT22;11202;50.916;4.698;2022-12-07T16:15:51;6.60;99.90
22073;DHT22;11202;50.916;4.698;2022-12-07T16:18:17;6.40;99.90
22073;DHT22;11202;50.916;4.698;2022-12-07T16:20:43;6.20;99.90
22073;DHT22;11202;50.916;4.698;2022-12-07T16:23:08;6.20;99.90
22073;DHT22;11202;50.916;4.698;2022-12-07T16:25:34;6.30;99.90
22073;DHT22;11202;50.916;4.698;2022-12-07T16:28:02;6.40;99.90
22073;DHT22;11202;50.916;4.698;2022-12-07T16:30:27;6.50;99.90
22073;DHT22;11202;50.916;4.698;2022-12-07T16:32:53;6.50;99.90
22073;DHT22;11202;50.916;4.698;2022-12-07T16:35:19;6.20;99.90
22073;DHT22;11202;50.916;4.698;2022-12-07T16:37:47;6.20;99.90
22073;DHT22;11202;50.916;4.698;2022-12-07T16:40:15;6.30;99.90
22073;DHT22;11202;50.916;4.698;2022-12-07T16:42:43;6.40;99.90
22073;DHT22;11202;50.916;4.698;2022-12-07T16:45:09;6.50;99.90
22073;DHT22;11202;50.916;4.698;2022-12-07T16:47:37;6.50;99.90
22073;DHT22;11202;50.916;4.698;2022-12-07T16:50:03;6.40;99.90
22073;DHT22;11202;50.916;4.698;2022-12-07T16:52:29;6.60;99.90
22073;DHT22;11202;50.916;4.698;2022-12-07T16:54:55;6.70;99.90
22073;DHT22;11202;50.916;4.698;2022-12-07T16:57:20;6.70;99.90
22073;DHT22;11202;50.916;4.698;2022-12-07T16:59:46;6.60;99.90
22073;DHT22;11202;50.916;4.698;2022-12-07T17:02:12;6.80;99.90
22073;DHT22;11202;50.916;4.698;2022-12-07T17:04:48;6.80;99.90
22073;DHT22;11202;50.916;4.698;2022-12-07T17:18:08;6.40;99.90
22073;DHT22;11202;50.916;4.698;2022-12-07T17:20:33;6.40;99.90
22073;DHT22;11202;50.916;4.698;2022-12-07T17:22:59;6.20;99.90
22073;DHT22;11202;50.916;4.698;2022-12-07T22:24:30;5.50;99.90
22073;DHT22;11202;50.916;4.698;2022-12-07T22:26:56;5.40;99.90
22073;DHT22;11202;50.916;4.698;2022-12-07T22:29:24;5.40;99.90
22073;DHT22;11202;50.916;4.698;2022-12-07T22:32:06;5.40;99.90
22073;DHT22;11202;50.916;4.698;2022-12-07T22:34:32;5.40;99.90
22073;DHT22;11202;50.916;4.698;2022-12-07T22:36:58;5.20;99.90
22073;DHT22;11202;50.916;4.698;2022-12-07T22:42:51;5.30;99.90
22073;DHT22;11202;50.916;4.698;2022-12-07T22:45:17;5.30;99.90
22073;DHT22;11202;50.916;4.698;2022-12-07T22:47:42;5.30;99.90
22073;DHT22;11202;50.916;4.698;2022-12-07T22:50:22;5.20;99.90
22073;DHT22;11202;50.916;4.698;2022-12-07T23:17:06;5.50;99.90
22073;DHT22;11202;50.916;4.698;2022-12-07T23:58:49;5.80;99.90
